Time;durP1;ratioP1;P1;durP2;ratioP2;P2;SDS_P1;SDS_P2;PMS_P1;PMS_P2;Temp;Humidity;BMP_temperature;BMP_pressure;BME280_temperature;BME280_humidity;BME280_pressure;Samples;Min_cycle;Max_cycle;Signal;HPM_P1;HPM_P2
2021/08/05 00:01:44;;;;;;;;;10.50;8.75;;;;;20.59;66.30;100804.47;5061482;28;45239;-64
2021/08/05 00:04:09;;;;;;;;;8.25;7.25;;;;;20.57;65.53;100801.94;5061055;28;45433;-64
2021/08/05 00:06:34;;;;;;;;;7.75;7.00;;;;;20.62;65.58;100804.25;5060846;28;45476;-64
2021/08/05 00:09:00;;;;;;;;;8.00;8.00;;;;;20.63;65.68;100808.63;5061094;28;45216;-63
2021/08/05 00:11:25;;;;;;;;;9.25;8.25;;;;;20.62;65.63;100804.25;5060265;28;45242;-64
2021/08/05 00:13:50;;;;;;;;;10.00;8.50;;;;;20.57;65.34;100791.38;5059913;28;45303;-62
2021/08/05 00:16:16;;;;;;;;;8.00;6.00;;;;;20.54;65.57;100781.03;5059468;28;45310;-63
2021/08/05 00:18:41;;;;;;;;;10.50;8.25;;;;;20.57;65.41;100787.91;5060349;28;45251;-66
2021/08/05 00:21:07;;;;;;;;;8.50;8.50;;;;;20.57;65.28;100779.97;5059660;28;45294;-64
2021/08/05 00:23:32;;;;;;;;;8.75;6.25;;;;;20.58;65.46;100773.75;5060240;28;45128;-63
2021/08/05 00:25:57;;;;;;;;;5.25;5.25;;;;;20.54;65.58;100769.63;5059446;28;46157;-62
2021/08/05 00:28:23;;;;;;;;;7.75;7.25;;;;;20.51;65.87;100770.69;5059890;28;45519;-62
2021/08/05 00:30:48;;;;;;;;;8.00;8.00;;;;;20.53;65.87;100773.22;5059755;28;45868;-63
2021/08/05 00:33:14;;;;;;;;;7.00;6.25;;;;;20.51;65.97;100778.59;5060059;28;45242;-63
2021/08/05 00:35:39;;;;;;;;;10.50;8.25;;;;;20.50;65.51;100770.78;5060159;28;49917;-63
2021/08/05 00:38:04;;;;;;;;;10.25;8.75;;;;;20.52;65.59;100771.53;5060105;28;45353;-63
2021/08/05 00:40:29;;;;;;;;;11.00;9.00;;;;;20.53;65.58;100770.59;5059280;28;45243;-63
2021/08/05 00:42:55;;;;;;;;;9.25;7.75;;;;;20.54;65.94;100772.28;5060145;28;45420;-63
2021/08/05 00:45:20;;;;;;;;;9.25;9.00;;;;;20.55;65.84;100758.13;5058659;28;45434;-63
2021/08/05 00:47:45;;;;;;;;;11.25;11.00;;;;;20.54;65.57;100767.00;5060213;28;45307;-64
2021/08/05 00:50:11;;;;;;;;;9.50;9.50;;;;;20.51;65.60;100770.69;5060193;28;45461;-65
2021/08/05 00:52:37;;;;;;;;;12.75;10.00;;;;;20.47;65.79;100761.28;5059655;28;45252;-64
2021/08/05 00:55:04;;;;;;;;;9.25;8.75;;;;;20.46;66.48;100764.88;5059915;28;45363;-65
2021/08/05 00:57:29;;;;;;;;;9.00;9.00;;;;;20.46;66.25;100766.69;5060313;28;45588;-62
2021/08/05 00:59:54;;;;;;;;;10.00;9.75;;;;;20.42;66.12;100759.91;5060034;28;45215;-63
2021/08/05 01:02:20;;;;;;;;;11.75;11.50;;;;;20.44;66.24;100773.88;5060112;28;45203;-66
2021/08/05 01:04:49;;;;;;;;;11.75;10.00;;;;;20.43;66.19;100764.25;5059836;28;46130;-66
2021/08/05 01:07:20;;;;;;;;;15.00;11.25;;;;;20.42;66.46;100760.75;5060005;28;45410;-66
2021/08/05 01:09:56;;;;;;;;;11.00;10.00;;;;;20.45;66.81;100754.44;5060194;28;45223;-66
2021/08/05 01:12:38;;;;;;;;;13.50;10.00;;;;;20.45;66.50;100750.00;5052109;28;45494;-66
2021/08/05 01:15:10;;;;;;;;;9.75;8.75;;;;;20.44;66.38;100750.09;5047342;28;46219;-65
2021/08/05 01:17:39;;;;;;;;;8.00;7.50;;;;;20.44;66.63;100744.81;5059628;28;45364;-64
2021/08/05 01:20:08;;;;;;;;;15.50;10.25;;;;;20.42;67.22;100739.63;5060209;28;45247;-64
2021/08/05 01:22:44;;;;;;;;;11.25;9.25;;;;;20.43;67.01;100748.41;5059692;28;45560;-64
2021/08/05 01:25:15;;;;;;;;;13.00;10.00;;;;;20.44;67.11;100743.03;5060023;28;46503;-64
2021/08/05 01:27:41;;;;;;;;;14.25;9.75;;;;;20.45;67.32;100747.34;5059666;28;45273;-64
2021/08/05 01:30:10;;;;;;;;;10.00;9.75;;;;;20.41;68.26;100742.38;5059919;28;45283;-64
2021/08/05 01:32:36;;;;;;;;;11.75;10.25;;;;;20.28;67.74;100745.84;5059417;28;45581;-62
2021/08/05 01:35:02;;;;;;;;;19.00;13.50;;;;;20.24;67.72;100749.63;5059570;28;47001;-62
2021/08/05 01:37:29;;;;;;;;;16.00;14.25;;;;;20.27;68.27;100751.22;5059982;28;45633;-59
2021/08/05 01:39:55;;;;;;;;;16.50;15.50;;;;;20.26;68.52;100738.97;5059984;28;45238;-60
2021/08/05 01:42:21;;;;;;;;;14.75;13.25;;;;;20.25;68.08;100742.56;5059358;28;45486;-62
2021/08/05 01:44:51;;;;;;;;;16.25;12.50;;;;;20.24;68.04;100746.16;5059280;28;46974;-59
2021/08/05 01:47:19;;;;;;;;;15.50;13.00;;;;;20.23;68.74;100737.38;5058697;28;45604;-59
2021/08/05 01:49:45;;;;;;;;;15.50;13.25;;;;;20.22;68.80;100732.19;5059718;28;45246;-60
2021/08/05 01:52:12;;;;;;;;;13.50;13.50;;;;;20.20;68.97;100727.00;5059407;28;45253;-59
2021/08/05 01:54:38;;;;;;;;;15.75;13.50;;;;;20.20;68.86;100729.66;5059414;28;46371;-61
2021/08/05 01:57:04;;;;;;;;;12.50;10.00;;;;;20.20;68.56;100721.72;5059201;28;45394;-61
2021/08/05 01:59:29;;;;;;;;;15.50;13.00;;;;;20.19;68.93;100720.03;5059447;28;45349;-61
2021/08/05 02:01:55;;;;;;;;;12.50;11.00;;;;;20.22;69.29;100721.63;5059157;28;45282;-61
2021/08/05 02:04:32;;;;;;;;;14.00;12.75;;;;;20.12;68.61;100710.88;5058359;28;47438;-61
2021/08/05 02:07:00;;;;;;;;;15.75;14.00;;;;;20.09;69.32;100713.72;5045659;28;45367;-61
2021/08/05 02:09:34;;;;;;;;;11.00;10.25;;;;;20.05;69.67;100709.59;5057481;28;45295;-61
2021/08/05 02:12:00;;;;;;;;;14.00;12.00;;;;;20.04;69.33;100706.13;5062742;28;45347;-61
2021/08/05 02:14:28;;;;;;;;;12.25;11.25;;;;;20.02;69.44;100708.03;5062262;28;46159;-60
2021/08/05 02:16:55;;;;;;;;;13.50;11.25;;;;;20.01;69.48;100708.09;5062746;28;45343;-59
2021/08/05 02:19:22;;;;;;;;;12.50;12.00;;;;;19.97;69.52;100707.47;5062860;28;45278;-59
2021/08/05 02:21:49;;;;;;;;;12.25;11.75;;;;;19.92;69.78;100706.09;5062775;28;45347;-60
2021/08/05 02:24:17;;;;;;;;;15.75;13.00;;;;;19.88;69.98;100699.34;5062311;28;46404;-61
2021/08/05 02:26:43;;;;;;;;;15.25;12.00;;;;;19.82;70.01;100703.19;5062944;28;45697;-61
2021/08/05 02:29:10;;;;;;;;;12.50;11.50;;;;;19.85;69.95;100702.19;5062486;28;45333;-62
2021/08/05 02:31:39;;;;;;;;;13.25;11.50;;;;;19.86;69.83;100701.22;5062369;28;45499;-61
2021/08/05 02:34:07;;;;;;;;;15.50;12.75;;;;;19.88;70.06;100701.97;5061775;28;46264;-61
2021/08/05 02:36:33;;;;;;;;;10.50;10.50;;;;;19.89;69.98;100695.75;5062903;28;45313;-61
2021/08/05 02:38:58;;;;;;;;;13.25;9.75;;;;;19.85;70.53;100692.47;5062374;28;45397;-61
2021/08/05 02:41:25;;;;;;;;;14.00;12.75;;;;;19.89;70.21;100695.75;5062548;28;45374;-60
2021/08/05 02:43:51;;;;;;;;;13.25;10.75;;;;;19.88;70.00;100688.78;5061873;28;46177;-60
2021/08/05 02:46:16;;;;;;;;;16.75;14.75;;;;;19.87;70.13;100692.38;5061918;28;45289;-61
2021/08/05 02:48:45;;;;;;;;;10.50;9.50;;;;;19.88;70.25;100687.00;5062268;28;45321;-61
2021/08/05 02:51:11;;;;;;;;;15.25;11.50;;;;;19.91;69.93;100693.84;5062458;28;45384;-60
2021/08/05 02:53:37;;;;;;;;;15.75;12.50;;;;;19.88;69.72;100692.25;5061727;28;46940;-64
2021/08/05 02:56:03;;;;;;;;;13.25;11.75;;;;;19.92;70.18;100693.75;5062363;28;45244;-59
2021/08/05 02:58:29;;;;;;;;;14.75;12.50;;;;;19.93;70.05;100694.59;5061766;28;45267;-65
2021/08/05 03:00:55;;;;;;;;;13.50;12.75;;;;;19.94;69.65;100685.72;5061950;28;45452;-68
2021/08/05 03:03:22;;;;;;;;;11.75;11.75;;;;;19.94;69.80;100691.84;5064592;28;46992;-74
2021/08/05 03:05:49;;;;;;;;;14.25;12.25;;;;;19.97;69.60;100689.00;5071078;28;45339;-73
2021/08/05 03:08:14;;;;;;;;;12.00;10.75;;;;;19.99;69.46;100683.63;5061902;28;45282;-73
2021/08/05 03:10:39;;;;;;;;;19.25;12.25;;;;;20.00;69.98;100683.50;5061969;28;45278;-72
2021/08/05 03:13:05;;;;;;;;;16.00;14.25;;;;;20.01;70.21;100679.06;5059951;28;49926;-73
2021/08/05 03:15:31;;;;;;;;;15.00;12.75;;;;;19.99;69.81;100679.19;5060937;28;45216;-73
2021/08/05 03:17:56;;;;;;;;;12.50;11.75;;;;;20.00;70.16;100685.31;5062002;28;45447;-61
2021/08/05 03:20:21;;;;;;;;;14.50;13.50;;;;;19.99;70.02;100678.34;5061872;28;45157;-61
2021/08/05 03:22:47;;;;;;;;;14.25;11.75;;;;;19.98;69.76;100674.84;5060185;28;46220;-61
2021/08/05 03:25:12;;;;;;;;;15.25;13.00;;;;;20.02;70.39;100670.22;5061778;28;45434;-61
2021/08/05 03:27:39;;;;;;;;;14.75;14.25;;;;;20.01;70.03;100679.06;5061468;28;45516;-61
2021/08/05 03:30:06;;;;;;;;;16.25;14.50;;;;;20.00;70.24;100677.38;5061602;28;45329;-61
2021/08/05 03:32:31;;;;;;;;;14.50;13.50;;;;;19.91;70.67;100672.75;5061166;28;45369;-61
2021/08/05 03:34:57;;;;;;;;;16.00;14.75;;;;;19.88;70.52;100673.81;5061720;28;45320;-62
2021/08/05 03:37:22;;;;;;;;;15.00;14.00;;;;;19.88;70.47;100667.69;5061098;28;45499;-61
2021/08/05 03:39:47;;;;;;;;;16.50;14.50;;;;;19.86;70.47;100657.25;5061463;28;47990;-62
2021/08/05 03:42:12;;;;;;;;;16.50;13.50;;;;;19.84;70.63;100650.38;5066131;28;45310;-61
2021/08/05 03:44:38;;;;;;;;;10.75;9.25;;;;;19.84;71.25;100656.50;5067203;28;45340;-61
2021/08/05 03:47:03;;;;;;;;;17.00;11.00;;;;;19.80;71.09;100654.16;5060873;28;45229;-61
2021/08/05 03:49:29;;;;;;;;;16.50;14.00;;;;;19.72;71.38;100657.31;5061295;28;45214;-61
2021/08/05 03:51:54;;;;;;;;;15.00;13.00;;;;;19.69;71.80;100653.09;5061210;28;45614;-59
2021/08/05 03:54:19;;;;;;;;;18.50;14.25;;;;;19.68;71.61;100656.69;5061038;28;45422;-59
2021/08/05 03:56:45;;;;;;;;;15.00;13.00;;;;;19.67;71.60;100649.72;5061085;28;45429;-60
2021/08/05 03:59:10;;;;;;;;;15.50;13.50;;;;;19.69;71.13;100653.09;5060952;28;45198;-60
2021/08/05 04:01:35;;;;;;;;;16.75;13.75;;;;;19.68;71.33;100656.69;5060455;28;50476;-60
2021/08/05 04:04:00;;;;;;;;;15.50;11.25;;;;;19.66;71.52;100655.94;5060923;28;45197;-60
2021/08/05 04:06:26;;;;;;;;;18.00;12.25;;;;;19.66;71.30;100653.31;5060639;28;45533;-60
2021/08/05 04:08:51;;;;;;;;;13.50;11.00;;;;;19.69;71.62;100646.97;5061039;28;45501;-62
2021/08/05 04:11:16;;;;;;;;;17.25;15.75;;;;;19.66;71.36;100645.38;5060584;28;46095;-63
2021/08/05 04:13:42;;;;;;;;;13.50;11.75;;;;;19.65;70.95;100646.34;5060585;28;45145;-61
2021/08/05 04:16:08;;;;;;;;;14.75;14.25;;;;;19.64;71.12;100641.16;5060209;28;45465;-61
2021/08/05 04:18:33;;;;;;;;;13.50;13.50;;;;;19.63;71.70;100647.41;5060155;28;45412;-61
2021/08/05 04:20:59;;;;;;;;;15.00;11.50;;;;;19.60;71.20;100642.28;5058908;28;45354;-61
2021/08/05 04:23:25;;;;;;;;;15.75;12.50;;;;;19.55;71.97;100644.41;5058899;28;45556;-61
2021/08/05 04:25:51;;;;;;;;;15.50;14.00;;;;;19.55;72.07;100655.78;5058922;28;45833;-61
2021/08/05 04:28:17;;;;;;;;;15.25;13.75;;;;;19.55;71.61;100639.97;5057525;28;45465;-60
2021/08/05 04:30:43;;;;;;;;;16.25;14.00;;;;;19.51;71.94;100634.97;5058390;28;47120;-60
2021/08/05 04:33:08;;;;;;;;;17.00;14.25;;;;;19.55;71.81;100647.88;5059077;28;45369;-60
2021/08/05 04:35:33;;;;;;;;;11.75;11.25;;;;;19.52;72.50;100645.41;5060502;28;45559;-59
2021/08/05 04:38:00;;;;;;;;;13.75;13.50;;;;;19.50;72.03;100649.94;5060691;28;45463;-59
2021/08/05 04:40:28;;;;;;;;;18.00;12.25;;;;;19.48;72.14;100646.56;5060205;28;45989;-59
2021/08/05 04:42:54;;;;;;;;;13.00;12.75;;;;;19.49;72.80;100650.91;5059949;28;45807;-61
2021/08/05 04:45:21;;;;;;;;;18.00;16.25;;;;;19.51;72.45;100640.25;5059753;28;45509;-62
2021/08/05 04:48:06;;;;;;;;;15.75;15.00;;;;;19.52;72.47;100645.41;5060401;28;45488;-59
2021/08/05 04:50:35;;;;;;;;;14.25;14.25;;;;;19.47;72.69;100644.88;5059986;28;45326;-60
2021/08/05 04:53:01;;;;;;;;;14.00;14.00;;;;;19.42;72.93;100642.56;5060078;28;45694;-60
2021/08/05 04:55:27;;;;;;;;;18.25;15.75;;;;;19.40;74.05;100651.47;5059620;28;45159;-58
2021/08/05 04:58:01;;;;;;;;;15.25;14.25;;;;;19.40;73.05;100651.47;5058767;28;45320;-59
2021/08/05 05:00:31;;;;;;;;;17.75;17.00;;;;;19.45;73.62;100647.63;5057947;28;45397;-62
2021/08/05 05:02:57;;;;;;;;;17.75;15.25;;;;;19.51;72.89;100654.28;5057693;28;45328;-60
2021/08/05 05:05:24;;;;;;;;;17.25;15.50;;;;;19.55;72.46;100652.31;5058925;28;45493;-61
2021/08/05 05:07:50;;;;;;;;;21.50;16.50;;;;;19.57;72.55;100664.44;5058256;28;45407;-59
2021/08/05 05:10:17;;;;;;;;;21.00;18.00;;;;;19.58;73.14;100666.13;5059086;28;46121;-69
2021/08/05 05:12:43;;;;;;;;;16.25;16.25;;;;;19.55;72.91;100662.84;5059196;28;45236;-68
2021/08/05 05:15:10;;;;;;;;;19.50;17.50;;;;;19.49;73.18;100668.50;5059398;28;45456;-60
2021/08/05 05:17:37;;;;;;;;;16.00;13.50;;;;;19.42;75.17;100655.75;5059552;28;45443;-67
2021/08/05 05:20:05;;;;;;;;;18.00;14.25;;;;;19.35;74.92;100669.41;5059786;28;45345;-65
2021/08/05 05:22:31;;;;;;;;;19.00;17.00;;;;;19.32;74.83;100666.97;5059239;28;45177;-64
2021/08/05 05:24:57;;;;;;;;;18.00;17.50;;;;;19.38;74.59;100664.75;5059466;28;45244;-64
2021/08/05 05:27:23;;;;;;;;;17.25;17.25;;;;;19.44;74.43;100663.53;5057943;28;45249;-65
2021/08/05 05:29:49;;;;;;;;;17.00;15.75;;;;;19.46;74.78;100661.66;5059466;28;45522;-64
2021/08/05 05:32:14;;;;;;;;;26.00;20.75;;;;;19.53;73.90;100655.00;5059266;28;45683;-64
2021/08/05 05:34:40;;;;;;;;;18.75;15.25;;;;;19.54;73.36;100659.38;5059525;28;45277;-66
2021/08/05 05:37:05;;;;;;;;;19.00;17.50;;;;;19.59;73.45;100662.53;5059224;28;45237;-64
2021/08/05 05:39:31;;;;;;;;;20.25;17.25;;;;;19.61;73.67;100660.66;5061682;28;45378;-61
2021/08/05 05:41:56;;;;;;;;;22.50;15.25;;;;;19.61;73.50;100658.00;5065635;28;45418;-61
2021/08/05 05:44:21;;;;;;;;;19.75;15.00;;;;;19.63;73.05;100661.41;5071287;28;45289;-62
2021/08/05 05:46:47;;;;;;;;;23.00;21.00;;;;;19.62;73.67;100670.28;5062168;28;45421;-66
2021/08/05 05:49:12;;;;;;;;;18.25;18.00;;;;;19.52;73.90;100663.88;5063149;28;46355;-64
2021/08/05 05:51:38;;;;;;;;;18.25;16.50;;;;;19.47;73.48;100667.75;5062828;28;45378;-61
2021/08/05 05:54:04;;;;;;;;;17.75;15.25;;;;;19.45;73.35;100662.59;5062975;28;45361;-61
2021/08/05 05:56:30;;;;;;;;;21.25;15.75;;;;;19.47;73.72;100667.75;5062813;28;45505;-61
2021/08/05 05:58:56;;;;;;;;;17.75;16.00;;;;;19.43;74.24;100672.41;5062240;28;46404;-61
2021/08/05 06:01:21;;;;;;;;;22.75;19.50;;;;;19.38;73.77;100672.66;5062357;28;45198;-62
2021/08/05 06:03:46;;;;;;;;;16.50;15.50;;;;;19.42;74.38;100670.69;5062900;28;45156;-60
2021/08/05 06:06:12;;;;;;;;;16.25;14.00;;;;;19.43;73.52;100677.66;5061417;28;45166;-61
2021/08/05 06:08:37;;;;;;;;;19.50;18.00;;;;;19.41;74.10;100680.38;5062436;28;46277;-61
2021/08/05 06:11:02;;;;;;;;;17.75;16.00;;;;;19.41;74.20;100683.00;5062446;28;45342;-59
2021/08/05 06:13:28;;;;;;;;;21.25;19.50;;;;;19.45;73.39;100688.94;5062032;28;45326;-60
2021/08/05 06:15:53;;;;;;;;;14.75;14.25;;;;;19.44;73.47;100689.91;5060595;28;45416;-60
2021/08/05 06:18:19;;;;;;;;;13.75;13.50;;;;;19.47;72.98;100688.84;5061400;28;46775;-59
2021/08/05 06:20:44;;;;;;;;;19.50;16.50;;;;;19.46;72.95;100685.38;5061169;28;45259;-59
2021/08/05 06:23:09;;;;;;;;;17.50;15.75;;;;;19.41;73.47;100688.28;5061968;28;45336;-60
2021/08/05 06:25:38;;;;;;;;;15.00;14.25;;;;;19.31;73.31;100695.09;5061254;28;45519;-59
2021/08/05 06:28:04;;;;;;;;;15.50;15.50;;;;;19.27;73.16;100695.41;5061150;28;46087;-59
2021/08/05 06:30:30;;;;;;;;;19.00;16.00;;;;;19.27;73.50;100687.50;5060611;28;45229;-59
2021/08/05 06:32:56;;;;;;;;;15.50;14.00;;;;;19.33;73.85;100692.38;5061737;28;45413;-59
2021/08/05 06:35:21;;;;;;;;;19.25;16.25;;;;;19.42;73.48;100691.75;5061330;28;45393;-58
2021/08/05 06:37:47;;;;;;;;;17.00;14.50;;;;;19.45;73.58;100691.59;5062068;28;46321;-59
2021/08/05 06:40:13;;;;;;;;;23.25;18.00;;;;;19.48;73.34;100686.13;5061900;28;45515;-59
2021/08/05 06:42:39;;;;;;;;;17.00;14.00;;;;;19.51;73.72;100688.53;5062254;28;45385;-59
2021/08/05 06:45:07;;;;;;;;;18.25;13.75;;;;;19.54;73.33;100684.88;5061527;28;45567;-63
2021/08/05 06:47:34;;;;;;;;;28.50;22.25;;;;;19.64;72.94;100678.09;5062120;28;45419;-62
2021/08/05 06:50:00;;;;;;;;;18.25;14.75;;;;;19.79;72.52;100681.47;5060428;28;45429;-62
2021/08/05 06:52:25;;;;;;;;;16.00;14.00;;;;;19.83;71.57;100685.63;5061918;28;45254;-65
2021/08/05 06:54:51;;;;;;;;;17.75;15.25;;;;;19.84;71.73;100682.88;5061573;28;45357;-62
2021/08/05 06:57:16;;;;;;;;;17.25;14.75;;;;;19.88;71.15;100678.22;5061657;28;46100;-61
2021/08/05 06:59:41;;;;;;;;;14.75;14.50;;;;;20.01;71.11;100673.81;5061562;28;45209;-61
2021/08/05 07:02:07;;;;;;;;;18.00;16.25;;;;;20.14;70.19;100668.53;5062020;28;45157;-62
2021/08/05 07:04:32;;;;;;;;;15.25;13.50;;;;;20.18;70.01;100678.78;5061601;28;45163;-62
2021/08/05 07:06:58;;;;;;;;;17.75;14.50;;;;;20.20;69.39;100679.50;5061555;28;46262;-62
2021/08/05 07:09:23;;;;;;;;;16.25;14.00;;;;;20.17;69.09;100674.44;5060957;28;45194;-62
2021/08/05 07:11:48;;;;;;;;;19.00;14.75;;;;;20.18;69.30;100686.69;5061597;28;45411;-62
2021/08/05 07:14:14;;;;;;;;;16.50;15.00;;;;;20.16;69.12;100682.47;5060353;28;45465;-62
2021/08/05 07:16:39;;;;;;;;;17.25;15.25;;;;;20.26;69.25;100692.31;5060846;28;46072;-62
2021/08/05 07:19:04;;;;;;;;;17.50;13.75;;;;;20.35;68.78;100689.03;5061391;28;45323;-62
2021/08/05 07:21:30;;;;;;;;;18.75;16.75;;;;;20.43;68.45;100685.91;5061206;28;45356;-62
2021/08/05 07:23:56;;;;;;;;;20.50;15.50;;;;;20.48;68.53;100685.56;5058640;28;45573;-61
2021/08/05 07:26:21;;;;;;;;;14.75;14.75;;;;;20.49;67.76;100690.75;5060698;28;47162;-61
2021/08/05 07:28:48;;;;;;;;;16.50;16.00;;;;;20.55;67.60;100692.09;5059446;28;45329;-60
2021/08/05 07:31:13;;;;;;;;;17.25;15.00;;;;;20.66;67.36;100686.94;5060789;28;45337;-59
2021/08/05 07:33:39;;;;;;;;;27.00;21.50;;;;;20.75;67.92;100694.19;5059804;28;45494;-59
2021/08/05 07:36:04;;;;;;;;;18.50;14.75;;;;;20.90;67.26;100677.25;5061228;28;46105;-60
2021/08/05 07:38:29;;;;;;;;;17.50;16.50;;;;;21.00;66.95;100681.88;5059962;28;45281;-59
2021/08/05 07:40:55;;;;;;;;;23.75;19.00;;;;;21.06;66.63;100689.38;5060696;28;45401;-61
2021/08/05 07:43:20;;;;;;;;;19.25;17.50;;;;;21.09;66.30;100681.22;5060256;28;45516;-62
2021/08/05 07:45:45;;;;;;;;;17.50;15.00;;;;;21.10;65.54;100675.84;5060131;28;46167;-64
2021/08/05 07:48:11;;;;;;;;;18.00;14.75;;;;;21.10;65.25;100680.28;5060890;28;45153;-62
2021/08/05 07:50:36;;;;;;;;;15.25;13.50;;;;;21.07;64.57;100678.69;5061116;28;45223;-61
2021/08/05 07:53:03;;;;;;;;;12.25;11.25;;;;;21.02;64.46;100683.44;5061009;28;45215;-69
2021/08/05 07:55:29;;;;;;;;;12.25;12.00;;;;;21.02;64.10;100682.59;5059586;28;47327;-67
2021/08/05 07:57:55;;;;;;;;;18.25;14.50;;;;;21.05;64.20;100671.84;5060955;28;45565;-64
2021/08/05 08:00:20;;;;;;;;;17.75;13.25;;;;;21.15;63.84;100678.13;5061323;28;45429;-66
2021/08/05 08:02:46;;;;;;;;;18.50;13.75;;;;;21.27;63.77;100676.44;5060979;28;45317;-65
2021/08/05 08:05:14;;;;;;;;;15.75;14.00;;;;;21.39;63.87;100676.38;5060393;28;45364;-67
2021/08/05 08:07:40;;;;;;;;;25.25;17.75;;;;;21.56;63.56;100670.69;5060754;28;45599;-63
2021/08/05 08:10:07;;;;;;;;;19.25;14.25;;;;;21.72;63.59;100675.69;5060778;28;45276;-64
2021/08/05 08:12:33;;;;;;;;;20.00;15.00;;;;;21.86;63.17;100672.00;5060464;28;45157;-64
2021/08/05 08:14:59;;;;;;;;;12.75;12.25;;;;;22.00;62.88;100673.56;5060212;28;46570;-63
2021/08/05 08:17:24;;;;;;;;;14.75;14.25;;;;;22.06;62.59;100660.78;5060413;28;45320;-60
2021/08/05 08:19:49;;;;;;;;;16.50;13.50;;;;;22.21;62.29;100669.31;5060774;28;45740;-63
2021/08/05 08:22:15;;;;;;;;;11.00;10.75;;;;;22.36;60.50;100667.28;5060487;28;45318;-65
2021/08/05 08:24:40;;;;;;;;;17.25;12.50;;;;;22.46;61.17;100660.34;5075921;27;47004;-62
2021/08/05 08:27:05;;;;;;;;;17.00;15.25;;;;;22.48;59.53;100654.91;5060202;28;45298;-59
2021/08/05 08:29:31;;;;;;;;;16.25;13.00;;;;;22.35;59.87;100661.16;5060639;28;45292;-63
2021/08/05 08:31:56;;;;;;;;;15.00;15.00;;;;;22.26;60.10;100653.94;5060142;28;45818;-63
2021/08/05 08:34:22;;;;;;;;;20.25;13.00;;;;;22.23;60.25;100650.69;5059366;28;46739;-68
2021/08/05 08:36:48;;;;;;;;;14.75;13.00;;;;;22.22;60.12;100646.34;5059611;28;45425;-62
2021/08/05 08:39:14;;;;;;;;;12.75;11.00;;;;;22.31;60.19;100640.34;5060471;28;45326;-62
2021/08/05 08:41:41;;;;;;;;;17.25;15.25;;;;;22.39;59.69;100648.50;5060264;28;45540;-65
2021/08/05 08:44:08;;;;;;;;;17.00;14.00;;;;;22.49;59.67;100649.50;5059767;28;47144;-64
2021/08/05 08:46:36;;;;;;;;;15.25;12.75;;;;;22.62;59.25;100642.25;5059888;28;45762;-59
2021/08/05 08:49:03;;;;;;;;;13.50;13.50;;;;;22.69;58.47;100646.09;5059080;28;45355;-57
2021/08/05 08:51:31;;;;;;;;;13.75;12.50;;;;;22.62;58.89;100641.41;5060167;28;45505;-58
2021/08/05 08:54:02;;;;;;;;;17.75;14.00;;;;;22.62;57.84;100644.06;5059852;28;45223;-67
2021/08/05 08:56:30;;;;;;;;;14.25;11.50;;;;;22.58;57.96;100645.25;5060058;28;45712;-64
2021/08/05 08:58:57;;;;;;;;;17.75;16.50;;;;;22.58;57.86;100640.81;5059958;28;45284;-61
2021/08/05 09:01:22;;;;;;;;;18.25;15.25;;;;;22.65;58.50;100633.25;5059637;28;45390;-62
2021/08/05 09:03:48;;;;;;;;;17.50;13.00;;;;;22.68;58.00;100633.00;5060058;28;45191;-62
2021/08/05 09:06:13;;;;;;;;;12.75;11.00;;;;;22.73;57.08;100638.75;5059839;28;45375;-62
2021/08/05 09:08:39;;;;;;;;;15.00;12.50;;;;;22.74;57.25;100643.94;5059550;28;45458;-63
2021/08/05 09:11:05;;;;;;;;;13.75;13.00;;;;;22.74;57.14;100643.94;5058961;28;45694;-63
2021/08/05 09:13:30;;;;;;;;;15.25;14.25;;;;;22.71;57.07;100646.81;5058945;28;46869;-63
2021/08/05 09:15:56;;;;;;;;;6.25;5.00;;;;;22.63;56.84;100651.91;5059415;28;45505;-63
2021/08/05 09:18:41;;;;;;;;;12.25;8.50;;;;;22.63;57.18;100646.59;5059821;28;45423;-63
2021/08/05 09:21:26;;;;;;;;;14.75;13.00;;;;;22.72;56.63;100642.38;5058043;28;45395;-64
2021/08/05 09:24:04;;;;;;;;;15.25;14.25;;;;;22.81;56.75;100644.28;5059298;28;46296;-64
2021/08/05 09:26:42;;;;;;;;;17.00;15.75;;;;;23.00;54.98;100651.63;5059700;28;45548;-64
2021/08/05 09:29:16;;;;;;;;;19.00;15.00;;;;;23.12;54.94;100644.50;5059521;28;45236;-64
2021/08/05 09:32:05;;;;;;;;;14.75;14.25;;;;;23.24;55.00;100641.69;5059473;28;45539;-64
2021/08/05 09:34:36;;;;;;;;;17.25;13.00;;;;;23.34;53.08;100649.72;5059090;28;46307;-64
2021/08/05 09:37:07;;;;;;;;;15.00;13.25;;;;;23.24;53.58;100638.19;5059170;28;45604;-64
2021/08/05 09:39:36;;;;;;;;;16.75;13.25;;;;;23.33;53.86;100651.53;5059573;28;45345;-64
2021/08/05 09:42:04;;;;;;;;;10.50;10.25;;;;;23.38;52.26;100637.88;5062285;28;45221;-64
2021/08/05 09:44:38;;;;;;;;;16.00;13.00;;;;;23.46;53.84;100640.75;5066021;28;45381;-63
2021/08/05 09:47:07;;;;;;;;;14.50;13.75;;;;;23.56;52.48;100639.03;5058749;28;45396;-60
2021/08/05 09:49:37;;;;;;;;;13.25;12.25;;;;;23.67;52.41;100635.50;5059420;28;45271;-62
2021/08/05 09:52:06;;;;;;;;;10.50;10.25;;;;;23.70;52.05;100632.59;5059158;28;45495;-61
2021/08/05 09:54:51;;;;;;;;;23.00;19.50;;;;;23.78;52.10;100629.28;5059070;28;47134;-64
2021/08/05 09:57:26;;;;;;;;;15.25;12.25;;;;;23.88;50.78;100628.38;5059014;28;45666;-68
2021/08/05 10:00:00;;;;;;;;;12.50;12.00;;;;;23.87;51.40;100621.41;5058974;28;45301;-61
2021/08/05 10:02:38;;;;;;;;;12.50;10.00;;;;;24.01;51.66;100617.53;5059013;28;45536;-65
2021/08/05 10:05:15;;;;;;;;;14.25;12.00;;;;;24.21;50.97;100611.34;5058475;28;47982;-62
2021/08/05 10:07:45;;;;;;;;;13.00;11.25;;;;;24.39;50.56;100610.75;5058887;28;45413;-65
2021/08/05 10:10:11;;;;;;;;;13.50;11.75;;;;;24.55;50.67;100598.66;5058923;28;45382;-66
2021/08/05 10:12:38;;;;;;;;;13.00;13.00;;;;;24.74;49.40;100597.03;5058433;28;45445;-62
2021/08/05 10:15:09;;;;;;;;;7.75;6.25;;;;;24.80;47.21;100602.63;5058515;28;48052;-63
2021/08/05 10:17:36;;;;;;;;;7.75;7.00;;;;;24.71;47.82;100594.66;5058457;28;45468;-63
2021/08/05 10:20:07;;;;;;;;;11.50;11.00;;;;;24.76;48.60;100593.25;5059044;28;45369;-63
2021/08/05 10:22:34;;;;;;;;;7.00;5.50;;;;;24.95;47.13;100587.13;5058659;28;45278;-61
2021/08/05 10:25:00;;;;;;;;;12.50;9.50;;;;;24.89;48.06;100587.69;5057234;28;48683;-66
2021/08/05 10:27:26;;;;;;;;;6.00;4.50;;;;;25.00;47.87;100595.56;5061518;28;45283;-63
2021/08/05 10:29:52;;;;;;;;;12.75;11.00;;;;;24.98;46.60;100583.34;5062106;28;45381;-70
2021/08/05 10:32:19;;;;;;;;;16.00;11.00;;;;;24.86;46.39;100590.63;5062532;28;45499;-62
2021/08/05 10:34:45;;;;;;;;;10.50;8.00;;;;;24.65;47.10;100587.25;5061791;28;46446;-63
2021/08/05 10:37:13;;;;;;;;;8.75;8.00;;;;;24.64;47.49;100593.53;5061505;28;45548;-61
2021/08/05 10:39:44;;;;;;;;;6.50;6.00;;;;;24.77;47.77;100576.34;5061950;28;45445;-61
2021/08/05 10:42:14;;;;;;;;;10.00;9.75;;;;;24.97;47.75;100571.88;5060919;28;45467;-62
2021/08/05 10:44:40;;;;;;;;;12.00;9.00;;;;;25.13;47.46;100574.03;5060717;28;46369;-60
2021/08/05 10:47:09;;;;;;;;;9.50;9.25;;;;;25.07;45.89;100564.78;5061090;28;45595;-72
2021/08/05 10:49:35;;;;;;;;;8.50;6.25;;;;;25.11;47.17;100566.19;5060872;28;45568;-60
2021/08/05 10:52:01;;;;;;;;;7.00;7.00;;;;;25.28;46.54;100563.81;5060820;28;45449;-59
2021/08/05 10:54:45;;;;;;;;;7.25;6.50;;;;;25.31;45.88;100558.22;5061608;28;46379;-59
2021/08/05 10:57:19;;;;;;;;;6.50;6.50;;;;;25.27;45.54;100562.97;5076833;27;46058;-60
2021/08/05 11:00:13;;;;;;;;;4.00;4.00;;;;;25.18;46.61;100566.47;5061148;28;45412;-62
2021/08/05 11:02:55;;;;;;;;;9.00;7.00;;;;;25.18;45.28;100553.16;5061180;28;45379;-65
2021/08/05 11:05:23;;;;;;;;;10.50;8.50;;;;;25.28;46.05;100558.50;5059983;28;47473;-62
2021/08/05 11:08:15;;;;;;;;;6.25;5.75;;;;;25.40;44.78;100552.03;5061405;28;45491;-62
2021/08/05 11:10:41;;;;;;;;;6.25;6.00;;;;;25.41;44.08;100548.38;5061263;28;45464;-63
2021/08/05 11:13:12;;;;;;;;;14.00;8.50;;;;;25.45;45.41;100544.47;5060228;28;45472;-62